createdAt,value
2023-01-10T00:00:35.356Z,11.30
2023-01-10T00:05:38.620Z,13.60
2023-01-10T00:10:40.315Z,11.50
2023-01-10T00:15:42.498Z,10.30
2023-01-10T00:20:47.066Z,15.30
2023-01-10T00:25:48.725Z,14.80
2023-01-10T00:30:55.139Z,12.30
2023-01-10T00:35:57.896Z,16.00
2023-01-10T00:40:59.563Z,13.50
2023-01-10T00:46:02.844Z,13.80
2023-01-10T00:51:05.472Z,11.80
2023-01-10T00:56:07.566Z,10.90
2023-01-10T01:01:09.295Z,12.30
2023-01-10T01:06:11.029Z,13.10
2023-01-10T01:11:12.690Z,11.80
2023-01-10T01:16:14.595Z,11.20
2023-01-10T01:21:16.420Z,15.70
2023-01-10T01:26:18.046Z,25.50
2023-01-10T01:31:19.805Z,13.80
2023-01-10T01:36:21.624Z,11.10
2023-01-10T01:41:42.114Z,15.80
2023-01-10T01:46:49.264Z,17.90
2023-01-10T01:51:57.763Z,12.40
2023-01-10T01:57:09.320Z,16.50
2023-01-10T02:02:20.062Z,12.30
2023-01-10T02:07:23.742Z,12.90
2023-01-10T02:12:29.382Z,25.00
2023-01-10T02:17:31.274Z,20.50
2023-01-10T02:22:54.562Z,13.30
2023-01-10T02:28:28.347Z,15.30
2023-01-10T02:33:34.930Z,21.40
2023-01-10T02:38:57.446Z,20.00
2023-01-10T02:44:05.834Z,19.80
2023-01-10T02:49:07.673Z,20.80
2023-01-10T02:54:19.569Z,28.40
2023-01-10T02:59:40.008Z,19.90
2023-01-10T03:09:50.921Z,13.40
2023-01-10T03:14:55.975Z,18.70
2023-01-10T03:20:02.731Z,26.20
2023-01-10T03:25:07.286Z,20.60
2023-01-10T03:30:28.129Z,19.70
2023-01-10T03:35:47.992Z,18.10
2023-01-10T03:41:29.458Z,27.60
2023-01-10T03:46:39.498Z,26.10
2023-01-10T03:51:42.897Z,23.00
2023-01-10T03:56:46.559Z,19.60
2023-01-10T04:01:48.563Z,25.50
2023-01-10T04:06:50.602Z,32.00
2023-01-10T04:11:52.291Z,27.10
2023-01-10T04:16:54.557Z,26.60
2023-01-10T04:21:56.491Z,33.40
2023-01-10T04:26:58.812Z,20.80
2023-01-10T04:32:01.139Z,23.40
2023-01-10T04:37:02.963Z,23.70
2023-01-10T04:42:04.710Z,25.70
2023-01-10T04:47:06.445Z,22.80
2023-01-10T04:52:08.104Z,18.80
2023-01-10T04:57:09.823Z,32.80
2023-01-10T05:02:11.751Z,28.00
2023-01-10T05:07:13.567Z,26.10
2023-01-10T05:12:15.497Z,14.70
2023-01-10T05:17:17.137Z,26.90
2023-01-10T05:22:18.817Z,24.00
2023-01-10T05:27:20.508Z,24.40
2023-01-10T05:32:22.215Z,18.50
2023-01-10T05:37:23.949Z,25.10
2023-01-10T05:42:25.848Z,22.40
2023-01-10T05:47:27.485Z,19.70
2023-01-10T05:52:29.575Z,14.00
2023-01-10T05:57:31.220Z,22.40
2023-01-10T06:02:33.655Z,20.90
2023-01-10T06:07:35.481Z,19.60
2023-01-10T06:12:40.053Z,14.10
2023-01-10T06:17:41.688Z,27.60
2023-01-10T06:22:43.857Z,20.80
2023-01-10T06:27:45.602Z,18.40
2023-01-10T06:32:47.369Z,18.20
2023-01-10T06:37:48.993Z,24.00
2023-01-10T06:42:50.819Z,24.90
2023-01-10T06:47:52.806Z,13.60
2023-01-10T06:52:59.483Z,15.90
2023-01-10T06:58:03.469Z,26.30
2023-01-10T07:03:05.216Z,21.40
2023-01-10T07:08:06.920Z,20.80
2023-01-10T07:13:08.933Z,18.00
2023-01-10T07:18:12.692Z,29.90
2023-01-10T07:23:14.663Z,21.30
2023-01-10T07:28:16.349Z,14.60
2023-01-10T07:33:18.068Z,18.40
2023-01-10T07:38:19.946Z,24.00
2023-01-10T07:43:21.822Z,18.50
2023-01-10T07:48:23.558Z,17.90
2023-01-10T07:53:26.528Z,22.20
2023-01-10T07:58:29.160Z,25.00
2023-01-10T08:03:33.053Z,20.80
2023-01-10T08:08:35.087Z,25.50
2023-01-10T08:13:36.853Z,18.00
2023-01-10T08:18:42.444Z,21.80
2023-01-10T08:23:44.202Z,20.50
2023-01-10T08:28:45.979Z,17.00
2023-01-10T08:33:47.755Z,18.60
2023-01-10T08:38:50.962Z,20.30
2023-01-10T08:43:52.794Z,23.50
2023-01-10T08:48:54.544Z,17.40
2023-01-10T08:53:56.209Z,24.20
2023-01-10T08:58:57.962Z,20.60
2023-01-10T09:03:59.889Z,18.60
2023-01-10T09:09:01.645Z,19.40
2023-01-10T09:14:03.402Z,22.30
2023-01-10T09:19:05.467Z,14.60
2023-01-10T09:24:07.643Z,19.20
2023-01-10T09:29:09.351Z,20.80
2023-01-10T09:34:11.096Z,21.10
2023-01-10T09:39:13.043Z,20.70
2023-01-10T09:44:36.877Z,21.60
2023-01-10T09:49:53.822Z,21.70
2023-01-10T09:54:58.922Z,20.90
2023-01-10T10:00:02.272Z,16.60
2023-01-10T10:05:21.420Z,15.40
2023-01-10T10:10:33.341Z,21.00
2023-01-10T10:16:09.075Z,16.90
2023-01-10T10:21:28.571Z,20.70
2023-01-10T10:26:40.087Z,15.90
2023-01-10T10:32:14.825Z,18.70
2023-01-10T10:37:33.402Z,17.30
2023-01-10T10:42:41.878Z,14.20
2023-01-10T10:47:50.803Z,18.70
2023-01-10T10:52:52.544Z,14.70
2023-01-10T10:58:00.188Z,12.80
2023-01-10T11:03:31.084Z,12.20
2023-01-10T11:08:43.796Z,15.70
2023-01-10T11:13:54.345Z,14.20
2023-01-10T11:19:27.400Z,12.60
2023-01-10T11:24:49.437Z,17.40
2023-01-10T11:30:03.455Z,30.40
2023-01-10T11:35:17.768Z,10.90
2023-01-10T11:40:25.823Z,12.00
2023-01-10T11:45:33.843Z,11.30
2023-01-10T11:50:39.798Z,10.80
2023-01-10T11:55:48.282Z,9.00
2023-01-10T12:00:50.359Z,12.50
2023-01-10T12:06:20.404Z,11.40
2023-01-10T12:11:28.223Z,9.40
2023-01-10T12:16:32.809Z,11.70
2023-01-10T12:21:42.476Z,12.00
2023-01-10T12:26:45.510Z,12.40
2023-01-10T12:31:47.391Z,10.30
2023-01-10T12:37:16.798Z,11.30
2023-01-10T12:43:12.489Z,10.20
2023-01-10T12:48:42.210Z,9.10
2023-01-10T12:53:52.152Z,12.10
2023-01-10T12:59:00.280Z,15.00
2023-01-10T13:04:15.569Z,12.10
2023-01-10T13:09:24.649Z,12.70
2023-01-10T13:14:33.987Z,11.00
2023-01-10T13:19:35.780Z,11.40
2023-01-10T13:24:37.439Z,13.20
2023-01-10T13:29:41.920Z,12.40
2023-01-10T13:34:43.723Z,10.70
2023-01-10T13:39:58.365Z,10.40
2023-01-10T13:45:21.233Z,8.10
2023-01-10T13:50:28.536Z,16.70
2023-01-10T13:55:36.135Z,11.30
2023-01-10T14:00:56.271Z,13.50
2023-01-10T14:05:58.041Z,13.00
2023-01-10T14:11:12.666Z,12.80
2023-01-10T14:16:37.887Z,9.50
2023-01-10T14:21:45.366Z,12.10
2023-01-10T14:26:48.009Z,11.50
2023-01-10T14:31:56.506Z,9.90
2023-01-10T14:37:01.912Z,15.20
2023-01-10T14:42:08.599Z,15.70
2023-01-10T14:47:28.707Z,8.10
2023-01-10T14:52:30.555Z,13.40
2023-01-10T14:57:32.342Z,14.90
2023-01-10T15:02:35.020Z,9.40
2023-01-10T15:07:38.875Z,15.60
2023-01-10T15:12:40.671Z,11.70
2023-01-10T15:17:44.465Z,16.00
2023-01-10T15:23:06.624Z,16.60
2023-01-10T15:28:15.413Z,13.10
2023-01-10T15:33:29.153Z,14.60
2023-01-10T15:38:34.250Z,15.70
2023-01-10T15:43:37.121Z,17.80
2023-01-10T15:48:38.964Z,17.00
2023-01-10T15:53:55.655Z,15.00
2023-01-10T15:58:59.528Z,21.50
2023-01-10T16:04:14.979Z,12.80
2023-01-10T16:09:22.607Z,13.10
2023-01-10T16:14:24.426Z,18.00
2023-01-10T16:19:26.367Z,21.60
2023-01-10T16:24:30.560Z,21.90
2023-01-10T16:29:32.872Z,28.50
2023-01-10T16:34:34.784Z,24.40
2023-01-10T16:39:36.507Z,22.20
2023-01-10T16:44:38.175Z,23.50
2023-01-10T16:49:41.827Z,25.70
2023-01-10T16:54:43.568Z,19.70
2023-01-10T16:59:45.356Z,22.30
2023-01-10T17:04:47.081Z,25.20
2023-01-10T17:09:48.718Z,24.50
2023-01-10T17:14:50.535Z,25.10
2023-01-10T17:19:52.368Z,23.80
2023-01-10T17:24:54.156Z,31.30
2023-01-10T17:29:55.910Z,30.60
2023-01-10T17:34:57.615Z,32.70
2023-01-10T17:39:59.271Z,35.10
2023-01-10T17:45:00.990Z,26.60
2023-01-10T17:50:03.714Z,30.50
2023-01-10T17:55:07.516Z,39.50
2023-01-10T18:00:10.592Z,29.10
2023-01-10T18:05:12.443Z,27.30
2023-01-10T18:10:14.186Z,33.20
2023-01-10T18:15:18.608Z,31.40
2023-01-10T18:20:20.537Z,25.60
2023-01-10T18:25:23.131Z,25.60
2023-01-10T18:30:24.807Z,26.90
2023-01-10T18:35:28.081Z,46.40
2023-01-10T18:40:30.039Z,30.60
2023-01-10T18:45:31.886Z,27.60
2023-01-10T18:50:34.019Z,31.30
2023-01-10T18:55:37.440Z,38.90
2023-01-10T19:00:39.427Z,33.80
2023-01-10T19:05:41.163Z,30.40
2023-01-10T19:11:07.188Z,41.00
2023-01-10T19:16:32.319Z,35.40
2023-01-10T19:21:36.000Z,34.80
2023-01-10T19:26:39.403Z,35.00
2023-01-10T19:31:42.571Z,41.80
2023-01-10T19:36:45.529Z,42.00
2023-01-10T19:46:49.382Z,28.10
2023-01-10T19:51:55.958Z,31.70
2023-01-10T19:56:57.945Z,28.50
2023-01-10T20:02:01.753Z,23.80
2023-01-10T20:07:03.623Z,32.80
2023-01-10T20:12:05.622Z,29.70
2023-01-10T20:17:08.169Z,31.00
2023-01-10T20:22:10.659Z,24.10
2023-01-10T20:27:12.425Z,37.20
2023-01-10T20:32:15.454Z,31.60
2023-01-10T20:37:17.367Z,32.00
2023-01-10T20:42:19.173Z,33.90
2023-01-10T20:47:23.139Z,29.70
2023-01-10T20:52:25.390Z,37.50
2023-01-10T20:57:27.164Z,29.70
2023-01-10T21:02:28.995Z,28.70
2023-01-10T21:07:30.966Z,31.80
2023-01-10T21:12:33.100Z,25.30
2023-01-10T21:17:34.912Z,23.60
2023-01-10T21:22:37.065Z,24.10
2023-01-10T21:27:38.965Z,31.90
2023-01-10T21:32:40.785Z,25.70
2023-01-10T21:37:42.527Z,24.10
2023-01-10T21:42:45.007Z,26.40
2023-01-10T21:47:48.087Z,21.30
2023-01-10T21:52:49.915Z,23.70
2023-01-10T21:57:51.640Z,26.90
2023-01-10T22:02:53.312Z,25.60
2023-01-10T22:07:56.035Z,23.30
2023-01-10T22:13:03.616Z,31.90
2023-01-10T22:18:05.725Z,26.80
2023-01-10T22:23:07.586Z,24.00
2023-01-10T22:28:09.405Z,21.40
2023-01-10T22:33:11.123Z,27.10
2023-01-10T22:38:12.769Z,25.50
2023-01-10T22:43:14.520Z,21.20
2023-01-10T22:48:16.276Z,20.60
2023-01-10T22:53:17.969Z,18.80
2023-01-10T22:58:21.010Z,20.60
2023-01-10T23:08:26.673Z,29.40
2023-01-10T23:13:30.583Z,30.20
2023-01-10T23:18:33.038Z,28.20
2023-01-10T23:23:35.453Z,28.70
2023-01-10T23:28:39.825Z,21.50
2023-01-10T23:33:41.550Z,14.70
2023-01-10T23:38:43.753Z,24.60
2023-01-10T23:43:45.563Z,26.60
2023-01-10T23:48:48.424Z,28.00
2023-01-10T23:53:50.129Z,19.60
2023-01-10T23:58:52.664Z,35.00
